Time;durP1;ratioP1;P1;durP2;ratioP2;P2;SDS_P1;SDS_P2;PMS_P1;PMS_P2;Temp;Humidity;BMP_temperature;BMP_pressure;BME280_temperature;BME280_humidity;BME280_pressure;Samples;Min_cycle;Max_cycle;Signal;HPM_P1;HPM_P2
2021/10/27 00:04:44;;;;;;;13.80;7.40;;;;;;;;;;10285878;28;20083;-60
2021/10/27 00:09:41;;;;;;;12.13;6.53;;;;;;;;;;10290271;28;20044;-60
2021/10/27 00:14:39;;;;;;;12.47;6.63;;;;;;;;;;10292533;28;20402;-61
2021/10/27 00:19:36;;;;;;;15.57;6.70;;;;;;;;;;10287625;28;20038;-62
2021/10/27 00:24:34;;;;;;;11.57;6.00;;;;;;;;;;10287209;28;20120;-61
2021/10/27 00:29:32;;;;;;;10.88;5.82;;;;;;;;;;10297155;28;20503;-61
2021/10/27 00:34:29;;;;;;;12.32;6.25;;;;;;;;;;10288655;28;20037;-62
2021/10/27 00:39:27;;;;;;;12.60;6.30;;;;;;;;;;10290222;28;20034;-60
2021/10/27 00:44:25;;;;;;;10.20;4.90;;;;;;;;;;10292581;28;20092;-61
2021/10/27 00:49:23;;;;;;;16.10;7.00;;;;;;;;;;10294762;28;20038;-61
2021/10/27 00:54:20;;;;;;;13.75;6.57;;;;;;;;;;10300705;28;20040;-60
2021/10/27 00:59:19;;;;;;;12.17;5.63;;;;;;;;;;10293442;28;20044;-61
2021/10/27 01:04:17;;;;;;;12.77;6.82;;;;;;;;;;10294028;28;20522;-60
2021/10/27 01:09:14;;;;;;;11.77;6.25;;;;;;;;;;10303304;28;20427;-60
2021/10/27 01:14:12;;;;;;;15.23;6.20;;;;;;;;;;10289680;28;20033;-61
2021/10/27 01:19:09;;;;;;;19.07;7.97;;;;;;;;;;10295653;28;20118;-62
2021/10/27 01:24:07;;;;;;;14.97;7.10;;;;;;;;;;10296865;28;20029;-60
2021/10/27 01:29:05;;;;;;;14.18;5.93;;;;;;;;;;10302382;28;20041;-60
2021/10/27 01:34:02;;;;;;;19.27;6.40;;;;;;;;;;10291883;28;20050;-60
2021/10/27 01:38:59;;;;;;;12.90;6.73;;;;;;;;;;10293460;28;20384;-61
2021/10/27 01:43:57;;;;;;;16.37;6.40;;;;;;;;;;10285256;28;20084;-61
2021/10/27 01:48:55;;;;;;;15.00;5.53;;;;;;;;;;10290947;28;20020;-61
2021/10/27 01:53:53;;;;;;;15.57;6.67;;;;;;;;;;10295793;28;20033;-60
2021/10/27 01:58:50;;;;;;;19.83;5.68;;;;;;;;;;10289943;28;20032;-61
2021/10/27 02:03:48;;;;;;;14.10;7.27;;;;;;;;;;10278849;28;20409;-61
2021/10/27 02:08:45;;;;;;;15.13;6.87;;;;;;;;;;10278923;28;20056;-59
2021/10/27 02:13:43;;;;;;;11.43;6.43;;;;;;;;;;10290126;28;20025;-61
2021/10/27 02:18:40;;;;;;;13.37;6.87;;;;;;;;;;10295817;28;20437;-63
2021/10/27 02:23:38;;;;;;;18.57;7.57;;;;;;;;;;10296856;28;20104;-61
2021/10/27 02:28:35;;;;;;;11.50;6.80;;;;;;;;;;10290606;28;20025;-62
2021/10/27 02:33:33;;;;;;;19.50;8.40;;;;;;;;;;10296506;28;20033;-62
2021/10/27 02:38:31;;;;;;;12.30;6.53;;;;;;;;;;10299453;28;20407;-62
2021/10/27 02:43:33;;;;;;;19.38;9.93;;;;;;;;;;10301313;28;20044;-62
2021/10/27 02:48:34;;;;;;;16.60;9.23;;;;;;;;;;10285725;28;20042;-62
2021/10/27 02:53:31;;;;;;;14.87;7.73;;;;;;;;;;10299986;28;20044;-63
2021/10/27 02:58:29;;;;;;;18.23;8.40;;;;;;;;;;10301931;28;20044;-62
2021/10/27 03:03:26;;;;;;;16.33;7.03;;;;;;;;;;10291290;28;20414;-62
2021/10/27 03:08:24;;;;;;;17.67;8.60;;;;;;;;;;10295972;28;20083;-62
2021/10/27 03:13:22;;;;;;;16.30;8.10;;;;;;;;;;10290963;28;20069;-63
2021/10/27 03:18:19;;;;;;;12.57;7.07;;;;;;;;;;10279966;28;20091;-62
2021/10/27 03:23:17;;;;;;;10.50;5.93;;;;;;;;;;10281486;28;20092;-62
2021/10/27 03:28:14;;;;;;;15.83;6.23;;;;;;;;;;10302785;28;20527;-62
2021/10/27 03:33:12;;;;;;;18.53;6.23;;;;;;;;;;10291980;28;20568;-59
2021/10/27 03:38:09;;;;;;;16.73;7.67;;;;;;;;;;10303232;28;20045;-61
2021/10/27 03:43:06;;;;;;;17.60;7.83;;;;;;;;;;10296755;28;20490;-62
2021/10/27 03:48:04;;;;;;;23.23;8.67;;;;;;;;;;10286496;28;20029;-63
2021/10/27 03:53:02;;;;;;;23.03;8.47;;;;;;;;;;10291322;28;20034;-62
2021/10/27 03:58:01;;;;;;;16.30;7.43;;;;;;;;;;10277762;28;20038;-62
2021/10/27 04:02:58;;;;;;;13.07;7.43;;;;;;;;;;10298842;28;20107;-61
2021/10/27 04:07:56;;;;;;;14.83;8.40;;;;;;;;;;10277762;28;20106;-62
2021/10/27 04:12:53;;;;;;;18.42;9.00;;;;;;;;;;10299321;22;20060;-64
2021/10/27 04:17:51;;;;;;;15.00;8.33;;;;;;;;;;10324866;28;20044;-63
2021/10/27 04:22:48;;;;;;;21.40;9.67;;;;;;;;;;10332245;28;20414;-61
2021/10/27 04:27:46;;;;;;;21.77;10.37;;;;;;;;;;10283729;28;20337;-62
2021/10/27 04:32:43;;;;;;;16.13;8.33;;;;;;;;;;10286766;28;20042;-63
2021/10/27 04:37:42;;;;;;;14.77;8.30;;;;;;;;;;10284296;28;20142;-62
2021/10/27 04:42:39;;;;;;;21.88;8.10;;;;;;;;;;10281592;28;20052;-62
2021/10/27 04:47:37;;;;;;;14.23;7.33;;;;;;;;;;10269926;22;21480;-65
2021/10/27 04:52:35;;;;;;;17.23;8.38;;;;;;;;;;10240387;28;20038;-64
2021/10/27 04:57:33;;;;;;;16.43;6.67;;;;;;;;;;10257198;28;20029;-64
2021/10/27 05:02:30;;;;;;;18.03;8.40;;;;;;;;;;10261610;28;20042;-64
2021/10/27 05:07:29;;;;;;;16.53;8.83;;;;;;;;;;10267195;28;20532;-64
2021/10/27 05:12:27;;;;;;;18.13;9.20;;;;;;;;;;10269419;28;20037;-65
2021/10/27 05:17:24;;;;;;;17.92;8.75;;;;;;;;;;10256676;28;20435;-63
2021/10/27 05:22:22;;;;;;;15.73;7.40;;;;;;;;;;10261108;28;20037;-64
2021/10/27 05:27:19;;;;;;;16.40;7.63;;;;;;;;;;10229646;28;20041;-64
2021/10/27 05:32:17;;;;;;;14.23;7.30;;;;;;;;;;10254165;28;20038;-65
2021/10/27 05:37:14;;;;;;;16.08;7.57;;;;;;;;;;10254702;28;20045;-64
2021/10/27 05:42:17;;;;;;;14.17;6.47;;;;;;;;;;10259781;28;20648;-65
2021/10/27 05:47:16;;;;;;;17.27;7.32;;;;;;;;;;10255194;28;20048;-64
2021/10/27 05:57:11;;;;;;;16.03;7.93;;;;;;;;;;10253706;28;20069;-58
2021/10/27 06:02:08;;;;;;;21.93;7.43;;;;;;;;;;10260292;28;20034;-57
2021/10/27 06:07:06;;;;;;;16.03;7.53;;;;;;;;;;10275597;28;20043;-64
2021/10/27 06:12:05;;;;;;;24.87;8.87;;;;;;;;;;10247730;28;20045;-61
2021/10/27 06:17:05;;;;;;;15.43;7.65;;;;;;;;;;10251517;28;20049;-66
2021/10/27 06:22:03;;;;;;;19.15;7.18;;;;;;;;;;10203167;28;20918;-63
2021/10/27 06:27:01;;;;;;;14.20;6.23;;;;;;;;;;10244684;28;20046;-61
2021/10/27 06:32:49;;;;;;;14.73;6.85;;;;;;;;;;10237566;28;20037;-57
2021/10/27 06:47:49;;;;;;;13.80;5.97;;;;;;;;;;10195769;28;20054;-61
2021/10/27 06:52:46;;;;;;;9.90;5.43;;;;;;;;;;10183685;28;20046;-61
2021/10/27 06:57:44;;;;;;;11.90;5.57;;;;;;;;;;10183106;28;20283;-62
2021/10/27 07:18:28;;;;;;;6.68;3.75;;;;;;;;;;10241586;28;20112;-62
2021/10/27 07:23:27;;;;;;;12.03;3.47;;;;;;;;;;10235930;28;20558;-62
2021/10/27 07:28:26;;;;;;;12.95;3.97;;;;;;;;;;10235343;28;20033;-58
2021/10/27 07:33:23;;;;;;;;;;;;;;;;;;10253760;28;20542;-62
2021/10/27 07:43:37;;;;;;;12.40;4.28;;;;;;;;;;10235363;28;20649;-62
2021/10/27 07:48:35;;;;;;;6.67;4.70;;;;;;;;;;10233798;28;20427;-62
2021/10/27 07:53:33;;;;;;;7.43;4.13;;;;;;;;;;10247673;28;20037;-64
2021/10/27 07:58:30;;;;;;;9.18;4.20;;;;;;;;;;10241404;28;20080;-65
2021/10/27 08:03:29;;;;;;;10.90;5.03;;;;;;;;;;10237651;28;20746;-64
2021/10/27 08:08:27;;;;;;;11.85;4.30;;;;;;;;;;10212087;28;20038;-61
2021/10/27 08:13:25;;;;;;;7.77;3.67;;;;;;;;;;10196196;28;20035;-61
2021/10/27 08:18:22;;;;;;;9.45;3.97;;;;;;;;;;10205881;28;20041;-63
2021/10/27 08:23:21;;;;;;;10.50;4.33;;;;;;;;;;10221415;28;20031;-62
2021/10/27 08:28:22;;;;;;;9.85;3.35;;;;;;;;;;10241767;28;20052;-63
2021/10/27 08:33:24;;;;;;;10.02;3.55;;;;;;;;;;10250144;28;20026;-64
2021/10/27 08:38:22;;;;;;;5.32;3.10;;;;;;;;;;10234784;28;20065;-62
2021/10/27 08:43:20;;;;;;;7.85;3.58;;;;;;;;;;10222554;28;21641;-64
2021/10/27 08:48:17;;;;;;;8.73;3.60;;;;;;;;;;10234555;28;20041;-63
2021/10/27 08:53:15;;;;;;;3.43;2.83;;;;;;;;;;10214417;28;21955;-62
2021/10/27 08:58:22;;;;;;;7.72;3.35;;;;;;;;;;10200466;28;20386;-64
2021/10/27 09:03:46;;;;;;;5.88;3.03;;;;;;;;;;10182299;28;20692;-64
2021/10/27 09:09:10;;;;;;;5.03;2.50;;;;;;;;;;10200896;28;20732;-66
2021/10/27 09:35:38;;;;;;;10.35;2.22;;;;;;;;;;10247740;28;20061;-65
2021/10/27 09:56:42;;;;;;;4.75;2.90;;;;;;;;;;10244644;28;20100;-63
2021/10/27 10:07:00;;;;;;;5.53;2.47;;;;;;;;;;10223029;28;20056;-64
2021/10/27 10:11:58;;;;;;;6.15;3.00;;;;;;;;;;10246127;28;20042;-62
2021/10/27 10:16:57;;;;;;;4.38;2.70;;;;;;;;;;10239208;28;20052;-60
2021/10/27 10:21:55;;;;;;;6.75;2.88;;;;;;;;;;10226603;28;20052;-62
2021/10/27 10:26:54;;;;;;;6.37;4.17;;;;;;;;;;10228306;28;20515;-60
2021/10/27 10:31:52;;;;;;;5.97;2.67;;;;;;;;;;10243912;28;20088;-62
2021/10/27 10:36:50;;;;;;;6.83;2.50;;;;;;;;;;10226405;28;20045;-61
2021/10/27 11:03:27;;;;;;;10.68;3.55;;;;;;;;;;10186880;28;20050;-63
2021/10/27 11:40:45;;;;;;;4.45;2.90;;;;;;;;;;10213745;28;20752;-66
2021/10/27 11:50:42;;;;;;;1.70;1.50;;;;;;;;;;10198134;28;20047;-61
2021/10/27 11:55:40;;;;;;;2.45;2.25;;;;;;;;;;10188256;28;20056;-63
2021/10/27 12:00:49;;;;;;;3.00;2.07;;;;;;;;;;10221471;28;20036;-65
2021/10/27 12:11:05;;;;;;;1.42;1.25;;;;;;;;;;10251797;28;20453;-61
2021/10/27 12:21:36;;;;;;;3.85;2.05;;;;;;;;;;10218431;28;20066;-62
2021/10/27 12:26:46;;;;;;;4.65;2.10;;;;;;;;;;10206715;28;20030;-63
2021/10/27 12:31:45;;;;;;;4.45;2.15;;;;;;;;;;10214629;28;20591;-64
2021/10/27 12:36:43;;;;;;;4.28;1.92;;;;;;;;;;10236899;28;20049;-64
2021/10/27 12:41:44;;;;;;;2.97;2.10;;;;;;;;;;10209818;28;20062;-64
2021/10/27 12:46:41;;;;;;;3.60;1.98;;;;;;;;;;10211244;28;20802;-64
2021/10/27 12:51:39;;;;;;;5.30;2.40;;;;;;;;;;10238752;28;20040;-64
2021/10/27 12:56:36;;;;;;;3.37;2.27;;;;;;;;;;10208459;28;20409;-63
2021/10/27 13:01:48;;;;;;;5.17;1.50;;;;;;;;;;10193035;28;20041;-64
2021/10/27 13:32:21;;;;;;;1.45;1.20;;;;;;;;;;10245979;28;20049;-64
2021/10/27 13:37:19;;;;;;;6.30;1.48;;;;;;;;;;10230400;28;20116;-63
2021/10/27 13:42:32;;;;;;;2.65;1.48;;;;;;;;;;10203382;28;20188;-65
2021/10/27 13:47:57;;;;;;;1.63;1.50;;;;;;;;;;10192173;28;20089;-64
2021/10/27 15:21:29;;;;;;;8.18;2.90;;;;;;;;;;10266541;28;20046;-63
2021/10/27 15:52:09;;;;;;;4.30;2.10;;;;;;;;;;10259406;28;20096;-65
2021/10/27 15:57:06;;;;;;;3.60;2.53;;;;;;;;;;10258437;28;20124;-62
2021/10/27 16:02:04;;;;;;;3.77;2.00;;;;;;;;;;10283469;28;20124;-65
2021/10/27 16:07:05;;;;;;;2.47;1.67;;;;;;;;;;10279012;28;20046;-64
2021/10/27 16:12:02;;;;;;;4.30;2.50;;;;;;;;;;10279205;28;20529;-63
2021/10/27 16:17:00;;;;;;;2.35;1.50;;;;;;;;;;10267077;28;20033;-64
2021/10/27 16:21:58;;;;;;;1.83;1.73;;;;;;;;;;10289719;28;20040;-61
2021/10/27 16:26:56;;;;;;;4.53;1.93;;;;;;;;;;10262779;28;20037;-65
2021/10/27 16:31:54;;;;;;;2.20;1.25;;;;;;;;;;10242765;28;20045;-64
2021/10/27 16:36:52;;;;;;;3.63;1.30;;;;;;;;;;10226624;28;20048;-62
2021/10/27 16:41:49;;;;;;;2.03;1.83;;;;;;;;;;10251298;28;20504;-63
2021/10/27 16:46:47;;;;;;;5.10;1.43;;;;;;;;;;10232582;28;20503;-62
2021/10/27 16:51:44;;;;;;;2.90;1.87;;;;;;;;;;10224267;28;20061;-61
2021/10/27 16:56:42;;;;;;;2.80;1.33;;;;;;;;;;10223910;28;20487;-62
2021/10/27 17:01:39;;;;;;;3.60;2.60;;;;;;;;;;10266758;28;20044;-62
2021/10/27 17:06:37;;;;;;;4.77;2.70;;;;;;;;;;10258182;28;20695;-62
2021/10/27 17:11:34;;;;;;;6.50;2.10;;;;;;;;;;10294083;28;20033;-63
2021/10/27 17:16:33;;;;;;;6.67;2.30;;;;;;;;;;10249029;28;20482;-63
2021/10/27 17:21:31;;;;;;;6.80;1.63;;;;;;;;;;10246718;28;20026;-62
2021/10/27 17:26:29;;;;;;;2.53;1.85;;;;;;;;;;10259228;28;20033;-62
2021/10/27 17:31:26;;;;;;;1.50;1.27;;;;;;;;;;10259367;28;20589;-63
2021/10/27 17:36:25;;;;;;;3.75;2.08;;;;;;;;;;10236058;28;20038;-63
2021/10/27 17:41:26;;;;;;;4.28;1.98;;;;;;;;;;10239724;28;21090;-64
2021/10/27 17:46:27;;;;;;;2.17;1.42;;;;;;;;;;10234455;28;20038;-62
2021/10/27 17:51:26;;;;;;;2.40;1.60;;;;;;;;;;10233170;28;20036;-60
2021/10/27 18:01:41;;;;;;;6.82;2.53;;;;;;;;;;10243646;28;20036;-62
2021/10/27 18:06:38;;;;;;;10.38;2.72;;;;;;;;;;10221173;28;20065;-62
2021/10/27 18:11:36;;;;;;;15.43;2.37;;;;;;;;;;10217796;28;20226;-62
2021/10/27 18:42:39;;;;;;;1.60;1.17;;;;;;;;;;10170888;28;20065;-63
2021/10/27 18:47:38;;;;;;;3.75;1.92;;;;;;;;;;10197495;28;20069;-64
2021/10/27 19:02:36;;;;;;;9.20;1.20;;;;;;;;;;10218855;28;20529;-64
2021/10/27 19:18:00;;;;;;;1.42;1.13;;;;;;;;;;10225844;28;20053;-65
2021/10/27 19:22:58;;;;;;;2.45;2.25;;;;;;;;;;10230385;28;20072;-63
2021/10/27 20:15:31;;;;;;;24.02;17.75;;;;;;;;;;10225622;28;20046;-64
2021/10/27 20:51:52;;;;;;;9.23;3.22;;;;;;;;;;10238202;28;20042;-62
2021/10/27 20:56:57;;;;;;;13.48;7.15;;;;;;;;;;10238882;28;20053;-64
2021/10/27 21:17:49;;;;;;;11.30;6.25;;;;;;;;;;10240235;28;20050;-64
2021/10/27 21:22:47;;;;;;;5.43;3.23;;;;;;;;;;10238473;28;20033;-65
2021/10/27 21:28:01;;;;;;;8.68;6.30;;;;;;;;;;10255883;28;20048;-65
2021/10/27 21:43:24;;;;;;;16.60;9.77;;;;;;;;;;10228794;28;20049;-63
2021/10/27 21:48:22;;;;;;;7.80;4.83;;;;;;;;;;10198542;28;20534;-65
2021/10/27 21:53:19;;;;;;;12.37;4.17;;;;;;;;;;10221824;28;20042;-62
2021/10/27 21:58:17;;;;;;;10.40;5.30;;;;;;;;;;10195354;28;20128;-64
2021/10/27 22:03:15;;;;;;;9.90;5.60;;;;;;;;;;10224776;28;20425;-64
2021/10/27 22:08:12;;;;;;;;;;;;;;;;;;10235443;28;20117;-62
2021/10/27 22:13:10;;;;;;;9.32;4.70;;;;;;;;;;10227881;28;20000;-62
2021/10/27 22:18:08;;;;;;;11.23;6.37;;;;;;;;;;10225047;28;20034;-63
2021/10/27 22:23:06;;;;;;;7.97;4.38;;;;;;;;;;10251555;28;20065;-63
2021/10/27 22:28:04;;;;;;;6.97;3.77;;;;;;;;;;10258222;28;20278;-61
2021/10/27 22:33:01;;;;;;;;;;;;;;;;;;10260267;28;20372;-63
2021/10/27 22:37:59;;;;;;;16.53;9.80;;;;;;;;;;10278069;28;19919;-64
2021/10/27 22:42:56;;;;;;;11.67;7.43;;;;;;;;;;10257426;28;21480;-62
2021/10/27 22:47:54;;;;;;;12.40;9.13;;;;;;;;;;10272990;28;20155;-59
2021/10/27 22:52:52;;;;;;;11.37;6.57;;;;;;;;;;10262775;28;20512;-59
2021/10/27 22:57:49;;;;;;;;;;;;;;;;;;10245475;28;20034;-60
2021/10/27 23:44:49;;;;;;;13.48;8.63;;;;;;;;;;10252732;28;20621;-60
2021/10/27 23:49:57;;;;;;;15.85;9.32;;;;;;;;;;10258058;28;20041;-60
2021/10/27 23:55:07;;;;;;;15.32;9.80;;;;;;;;;;10250339;28;20309;-59
